createdAt,value
2022-08-04T00:03:02.587Z,17.9
2022-08-04T00:08:02.591Z,17.9
2022-08-04T00:13:02.581Z,17.7
2022-08-04T00:18:02.592Z,17.7
2022-08-04T00:23:02.595Z,17.7
2022-08-04T00:28:02.595Z,17.5
2022-08-04T00:33:02.598Z,17.6
2022-08-04T00:38:02.590Z,17.6
2022-08-04T00:43:02.591Z,17.7
2022-08-04T00:48:02.542Z,17.6
2022-08-04T00:53:02.594Z,17.6
2022-08-04T00:58:02.597Z,17.5
2022-08-04T01:03:02.593Z,17.5
2022-08-04T01:08:02.638Z,17.5
2022-08-04T01:13:02.569Z,17.4
2022-08-04T01:18:02.596Z,17.5
2022-08-04T01:23:02.598Z,17.4
2022-08-04T01:28:02.590Z,17.5
2022-08-04T01:33:02.585Z,17.3
2022-08-04T01:38:02.596Z,17.2
2022-08-04T01:43:02.586Z,17.1
2022-08-04T01:48:02.588Z,16.8
2022-08-04T01:53:02.645Z,17.0
2022-08-04T01:58:02.601Z,16.9
2022-08-04T02:03:02.691Z,17.0
2022-08-04T02:08:02.608Z,16.9
2022-08-04T02:13:02.615Z,17.2
2022-08-04T02:18:02.612Z,16.9
2022-08-04T02:23:02.629Z,16.9
2022-08-04T02:28:02.615Z,16.9
2022-08-04T02:33:02.617Z,16.9
2022-08-04T02:38:02.632Z,16.8
2022-08-04T02:43:02.614Z,16.8
2022-08-04T02:48:29.295Z,16.9
2022-08-04T02:53:02.623Z,16.8
2022-08-04T02:58:02.635Z,16.3
2022-08-04T03:03:02.613Z,16.4
2022-08-04T03:08:02.630Z,16.5
2022-08-04T03:13:02.631Z,16.6
2022-08-04T03:18:02.640Z,16.4
2022-08-04T03:23:12.597Z,16.6
2022-08-04T03:28:02.655Z,16.5
2022-08-04T03:33:02.642Z,16.5
2022-08-04T03:38:02.656Z,16.2
2022-08-04T03:43:02.660Z,16.3
2022-08-04T03:48:02.655Z,16.2
2022-08-04T03:53:02.650Z,16.2
2022-08-04T03:58:02.654Z,16.0
2022-08-04T04:03:02.660Z,16.4
2022-08-04T04:08:04.365Z,16.4
2022-08-04T04:13:02.670Z,16.1
2022-08-04T04:18:02.663Z,16.2
2022-08-04T04:23:02.675Z,16.0
2022-08-04T04:28:45.197Z,15.7
2022-08-04T04:33:02.661Z,15.7
2022-08-04T04:38:02.673Z,15.9
2022-08-04T04:43:02.668Z,15.7
2022-08-04T04:48:08.164Z,16.0
2022-08-04T04:53:02.677Z,15.2
2022-08-04T04:58:02.667Z,15.9
2022-08-04T05:03:07.281Z,15.8
2022-08-04T05:08:43.439Z,15.9
2022-08-04T05:14:37.122Z,15.7
2022-08-04T05:18:02.683Z,15.7
2022-08-04T05:23:02.687Z,15.9
2022-08-04T05:28:02.675Z,15.9
2022-08-04T05:33:02.683Z,16.1
2022-08-04T05:38:02.702Z,16.1
2022-08-04T05:43:02.676Z,15.7
2022-08-04T05:48:02.724Z,16.1
2022-08-04T05:53:02.706Z,15.9
2022-08-04T05:58:02.684Z,16.0
2022-08-04T06:03:02.708Z,16.0
2022-08-04T06:08:12.367Z,16.5
2022-08-04T06:13:02.699Z,16.9
2022-08-04T06:18:33.309Z,17.0
2022-08-04T06:23:02.691Z,16.5
2022-08-04T06:28:02.704Z,16.9
2022-08-04T06:33:03.472Z,16.7
2022-08-04T06:38:02.708Z,16.8
2022-08-04T06:43:02.702Z,16.7
2022-08-04T06:48:02.725Z,17.0
2022-08-04T06:53:02.721Z,17.0
2022-08-04T06:58:03.430Z,17.0
2022-08-04T07:03:02.734Z,17.2
2022-08-04T07:08:02.723Z,17.2
2022-08-04T07:13:02.736Z,20.2
2022-08-04T07:18:02.736Z,19.5
2022-08-04T07:23:02.745Z,19.0
2022-08-04T07:28:02.727Z,20.1
2022-08-04T07:33:02.752Z,21.6
2022-08-04T07:38:02.743Z,22.3
2022-08-04T07:43:02.747Z,22.5
2022-08-04T07:48:05.097Z,21.7
2022-08-04T07:53:54.493Z,21.1
2022-08-04T07:58:02.752Z,21.0
2022-08-04T08:03:02.810Z,21.9
2022-08-04T08:08:02.742Z,20.4
2022-08-04T08:13:02.746Z,20.0
2022-08-04T08:18:02.767Z,19.8
2022-08-04T08:23:02.778Z,21.1
2022-08-04T08:28:02.771Z,20.2
2022-08-04T08:33:05.491Z,19.9
2022-08-04T08:38:02.765Z,21.6
2022-08-04T08:43:59.988Z,23.5
2022-08-04T08:48:06.006Z,21.8
2022-08-04T08:53:03.183Z,22.4
2022-08-04T08:58:02.777Z,22.0
2022-08-04T09:03:04.860Z,20.0
2022-08-04T09:08:02.776Z,22.5
2022-08-04T09:13:02.789Z,23.5
2022-08-04T09:18:02.783Z,20.7
2022-08-04T09:23:02.812Z,21.4
2022-08-04T09:28:09.448Z,21.9
2022-08-04T09:33:02.833Z,22.4
2022-08-04T09:38:02.796Z,21.6
2022-08-04T09:43:02.804Z,23.7
2022-08-04T09:48:02.824Z,23.7
2022-08-04T09:53:03.008Z,23.4
2022-08-04T09:58:02.810Z,23.4
2022-08-04T10:03:02.891Z,23.5
2022-08-04T10:08:16.316Z,23.7
2022-08-04T10:13:02.798Z,24.3
2022-08-04T10:18:02.845Z,24.0
2022-08-04T10:23:11.522Z,23.9
2022-08-04T10:28:02.830Z,23.9
2022-08-04T10:33:02.822Z,23.2
2022-08-04T10:38:02.931Z,23.8
2022-08-04T10:43:02.836Z,24.3
2022-08-04T10:48:02.823Z,24.0
2022-08-04T10:53:02.834Z,24.0
2022-08-04T10:58:02.840Z,25.1
2022-08-04T11:03:02.941Z,24.2
2022-08-04T11:08:02.829Z,24.8
2022-08-04T11:13:02.849Z,24.2
2022-08-04T11:18:02.835Z,24.4
2022-08-04T11:23:02.857Z,23.5
2022-08-04T11:28:02.881Z,25.0
2022-08-04T11:33:02.848Z,24.4
2022-08-04T11:38:02.867Z,24.7
2022-08-04T11:43:02.856Z,24.5
2022-08-04T11:48:02.866Z,23.3
2022-08-04T11:53:02.854Z,23.7
2022-08-04T11:58:02.869Z,23.9
2022-08-04T12:03:02.855Z,22.2
2022-08-04T12:08:02.866Z,22.0
2022-08-04T12:13:02.881Z,21.5
2022-08-04T12:18:03.550Z,23.3
2022-08-04T12:23:02.878Z,22.9
2022-08-04T12:28:02.890Z,22.7
2022-08-04T12:33:02.879Z,23.5
2022-08-04T12:38:02.901Z,24.0
2022-08-04T12:43:02.903Z,23.9
2022-08-04T12:48:02.879Z,23.7
2022-08-04T12:53:03.779Z,24.2
2022-08-04T12:58:02.976Z,24.4
2022-08-04T13:03:02.917Z,23.9
2022-08-04T13:08:02.901Z,22.9
2022-08-04T13:13:02.899Z,22.7
2022-08-04T13:18:02.941Z,22.4
2022-08-04T13:23:02.895Z,22.9
2022-08-04T13:28:02.926Z,22.2
2022-08-04T13:33:02.908Z,22.4
2022-08-04T13:38:02.909Z,23.1
2022-08-04T13:43:02.914Z,23.4
2022-08-04T13:48:15.062Z,23.9
2022-08-04T13:53:02.909Z,23.7
2022-08-04T13:58:02.931Z,23.8
2022-08-04T14:03:03.216Z,23.4
2022-08-04T14:08:02.920Z,24.2
2022-08-04T14:13:02.924Z,24.0
2022-08-04T14:18:03.074Z,23.8
2022-08-04T14:23:02.920Z,23.5
2022-08-04T14:28:02.943Z,23.5
2022-08-04T14:34:01.878Z,22.4
2022-08-04T14:38:03.378Z,22.2
2022-08-04T14:43:07.571Z,22.5
2022-08-04T14:48:02.936Z,22.8
2022-08-04T14:53:02.945Z,23.4
2022-08-04T14:58:36.817Z,24.0
2022-08-04T15:03:02.948Z,23.9
2022-08-04T15:08:02.941Z,23.4
2022-08-04T15:13:02.943Z,23.9
2022-08-04T15:18:02.985Z,24.4
2022-08-04T15:23:05.113Z,24.4
2022-08-04T15:28:02.946Z,23.5
2022-08-04T15:33:02.949Z,23.0
2022-08-04T15:38:02.965Z,22.7
2022-08-04T15:43:02.957Z,23.2
2022-08-04T15:48:03.046Z,23.0
2022-08-04T15:53:12.626Z,23.1
2022-08-04T15:58:02.967Z,23.6
2022-08-04T16:03:02.963Z,23.7
2022-08-04T16:08:02.963Z,23.1
2022-08-04T16:13:03.242Z,23.5
2022-08-04T16:18:02.979Z,22.7
2022-08-04T16:23:02.979Z,22.6
2022-08-04T16:28:02.976Z,23.0
2022-08-04T16:33:02.993Z,22.7
2022-08-04T16:38:02.986Z,22.7
2022-08-04T16:43:02.992Z,22.6
2022-08-04T16:48:02.986Z,22.2
2022-08-04T16:53:02.989Z,21.7
2022-08-04T16:58:02.990Z,21.9
2022-08-04T17:03:02.990Z,21.5
2022-08-04T17:08:28.489Z,21.7
2022-08-04T17:13:20.809Z,21.6
2022-08-04T17:18:06.445Z,21.4
2022-08-04T17:23:02.995Z,21.0
2022-08-04T17:28:19.502Z,21.0
2022-08-04T17:33:02.989Z,21.5
2022-08-04T17:38:03.010Z,21.6
2022-08-04T17:43:02.999Z,21.6
2022-08-04T17:48:03.729Z,21.3
2022-08-04T17:53:03.014Z,21.4
2022-08-04T17:58:03.012Z,20.9
2022-08-04T18:03:03.028Z,20.6
2022-08-04T18:08:40.348Z,20.4
2022-08-04T18:13:03.011Z,20.3
2022-08-04T18:18:20.777Z,20.0
2022-08-04T18:23:03.023Z,20.0
2022-08-04T18:28:03.022Z,19.2
2022-08-04T18:33:24.073Z,19.3
2022-08-04T18:38:07.457Z,19.2
2022-08-04T18:43:03.691Z,19.5
2022-08-04T18:48:04.025Z,19.3
2022-08-04T18:53:03.040Z,19.2
2022-08-04T18:58:07.717Z,19.3
2022-08-04T19:03:03.086Z,19.4
2022-08-04T19:08:32.453Z,18.8
2022-08-04T19:13:03.053Z,19.0
2022-08-04T19:18:07.119Z,19.2
2022-08-04T19:24:10.582Z,19.1
2022-08-04T19:28:03.048Z,18.7
2022-08-04T19:33:03.044Z,18.5
2022-08-04T19:43:14.319Z,18.0
2022-08-04T19:48:17.190Z,18.2
2022-08-04T19:53:04.316Z,17.7
2022-08-04T19:58:03.065Z,17.7
2022-08-04T20:03:03.377Z,17.5
2022-08-04T20:08:03.066Z,17.8
2022-08-04T20:13:03.087Z,17.5
2022-08-04T20:18:34.733Z,17.7
2022-08-04T20:23:03.087Z,17.6
2022-08-04T20:28:03.074Z,17.2
2022-08-04T20:33:04.297Z,17.0
2022-08-04T20:38:03.105Z,16.9
2022-08-04T20:43:03.081Z,17.4
2022-08-04T20:48:03.070Z,17.0
2022-08-04T20:53:03.092Z,17.3
2022-08-04T20:58:03.987Z,17.3
2022-08-04T21:03:03.098Z,17.0
2022-08-04T21:08:03.092Z,17.0
2022-08-04T21:13:03.089Z,17.0
2022-08-04T21:18:04.190Z,17.0
2022-08-04T21:23:03.690Z,17.2
2022-08-04T21:28:04.485Z,16.4
2022-08-04T21:33:03.102Z,16.4
2022-08-04T21:38:03.121Z,16.7
2022-08-04T21:43:03.094Z,16.6
2022-08-04T21:48:03.110Z,16.7
2022-08-04T21:53:03.108Z,16.4
2022-08-04T21:58:03.118Z,16.5
2022-08-04T22:03:03.202Z,16.1
2022-08-04T22:08:03.113Z,16.7
2022-08-04T22:13:06.837Z,16.4
2022-08-04T22:18:04.338Z,16.4
2022-08-04T22:23:15.483Z,16.4
2022-08-04T22:28:03.118Z,16.6
2022-08-04T22:33:03.125Z,16.5
2022-08-04T22:38:07.156Z,15.8
2022-08-04T22:43:03.154Z,16.1
2022-08-04T22:48:03.122Z,15.8
2022-08-04T22:53:03.132Z,15.7
2022-08-04T22:58:04.944Z,16.1
2022-08-04T23:03:03.139Z,16.0
2022-08-04T23:08:05.204Z,15.6
2022-08-04T23:13:04.181Z,15.9
2022-08-04T23:18:03.152Z,15.9
2022-08-04T23:23:12.253Z,15.7
2022-08-04T23:28:03.155Z,15.6
2022-08-04T23:33:03.141Z,15.7
2022-08-04T23:38:30.643Z,15.7
2022-08-04T23:43:12.270Z,15.5
2022-08-04T23:48:18.739Z,15.5
2022-08-04T23:53:03.170Z,15.5
2022-08-04T23:58:16.844Z,15.3
